Terminal Aerodrome Forecast
Issued by NWS

Home | Current Version | Previous Version | Text Only | Print | Product List | Glossary On
Versions: 1 2 3 4 5 6 7 8 9 10 11 12 13 14 15 16
746
FTUS41 KBGM 190901 AAA
TAFELM
TAF AMD
KELM 190901Z 1909/2006 26006KT P6SM OVC025
      TEMPO 1909/1912 OVC015
     FM191200 26003KT P6SM BKN015
     FM191600 30004KT P6SM BKN025
     FM192000 VRB03KT P6SM SCT035
     FM200200 00000KT P6SM BKN030=

USA.gov is the U.S. government's official web portal to all federal, state and local government web resources and services.